Washta, Iowa
Current Conditions -  °F | °C
As of 10:30 PM on Thursday 18 Dec 2014 (Local Time) from KCKP Reporting Station
Overcast Overcast  
Wind Chill: -5°   Ceiling: 1600
Heat Index: -2°   Visibility: 7mi
Dew Point: -3°   Wind: 5mph
Humidity: 94%   Direction: 170°S
Pressure: 30.22"   Gusts: NA
Location:  42.58°N, 95.72°W
Report Text: KCKP 190430Z AUTO 17004KT 7SM OVC016 M02/M02 A3022 RMK AO2 T10171025
Loading
Personal Weather Stations






























Interactive Weather Map New forecast layout! Learn more

10-Day Weather Forecast

Advertisements
Track Severe Weather on mobile